Time;durP1;ratioP1;P1;durP2;ratioP2;P2;SDS_P1;SDS_P2;PMS_P1;PMS_P2;Temp;Humidity;BMP_temperature;BMP_pressure;BME280_temperature;BME280_humidity;BME280_pressure;Samples;Min_cycle;Max_cycle;Signal;HPM_P1;HPM_P2
2023/04/19 00:02:01;;;;;;;;;;;20.60;83.50;;;;;;5117244;27;19907;-50
2023/04/19 00:04:27;;;;;;;;;;;20.70;83.30;;;;;;5117239;28;19908;-49
2023/04/19 00:06:52;;;;;;;;;;;20.90;83.10;;;;;;5116033;28;19914;-52
2023/04/19 00:09:18;;;;;;;;;;;21.00;82.70;;;;;;5116944;28;19930;-53
2023/04/19 00:11:43;;;;;;;;;;;21.20;82.30;;;;;;5117042;28;19916;-49
2023/04/19 00:14:09;;;;;;;;;;;21.30;82.00;;;;;;5117086;28;19911;-49
2023/04/19 00:16:34;;;;;;;;;;;21.30;81.80;;;;;;5116440;27;19961;-51
2023/04/19 00:19:00;;;;;;;;;;;21.30;81.80;;;;;;5117001;28;19915;-53
2023/04/19 00:21:26;;;;;;;;;;;21.30;81.90;;;;;;5116873;28;20300;-52
2023/04/19 00:23:52;;;;;;;;;;;21.20;81.90;;;;;;5116882;28;19943;-51
2023/04/19 00:26:18;;;;;;;;;;;21.10;82.10;;;;;;5116571;28;19953;-53
2023/04/19 00:28:44;;;;;;;;;;;21.10;82.20;;;;;;5116544;28;19912;-50
2023/04/19 00:31:09;;;;;;;;;;;21.00;82.40;;;;;;5115073;28;20247;-51
2023/04/19 00:33:35;;;;;;;;;;;20.90;82.50;;;;;;5116446;28;19919;-51
2023/04/19 00:36:00;;;;;;;;;;;20.80;83.30;;;;;;5116628;27;19908;-52
2023/04/19 00:38:26;;;;;;;;;;;20.80;82.90;;;;;;5116591;28;20415;-50
2023/04/19 00:40:51;;;;;;;;;;;20.70;83.00;;;;;;5116540;28;19964;-51
2023/04/19 00:43:18;;;;;;;;;;;20.70;83.20;;;;;;5116551;28;19924;-49
2023/04/19 00:45:44;;;;;;;;;;;20.70;83.20;;;;;;5116364;27;20389;-51
2023/04/19 00:48:10;;;;;;;;;;;20.60;83.70;;;;;;5116312;28;19908;-51
2023/04/19 00:50:35;;;;;;;;;;;20.60;83.20;;;;;;5116198;28;19912;-53
2023/04/19 00:53:01;;;;;;;;;;;20.70;83.20;;;;;;5116286;28;19912;-51
2023/04/19 00:55:26;;;;;;;;;;;20.80;82.90;;;;;;5116205;28;19908;-51
2023/04/19 00:57:52;;;;;;;;;;;20.90;82.70;;;;;;5116252;28;19908;-49
2023/04/19 01:00:18;;;;;;;;;;;21.10;82.40;;;;;;5116128;28;20393;-51
2023/04/19 01:02:44;;;;;;;;;;;21.20;82.10;;;;;;5116101;28;20350;-49
2023/04/19 01:05:09;;;;;;;;;;;21.30;81.90;;;;;;5115700;28;19922;-48
2023/04/19 01:07:35;;;;;;;;;;;21.40;81.70;;;;;;5116019;28;19908;-52
2023/04/19 01:10:00;;;;;;;;;;;21.30;81.60;;;;;;5116298;28;19912;-50
2023/04/19 01:12:26;;;;;;;;;;;21.30;81.70;;;;;;5115721;28;19919;-51
2023/04/19 01:14:51;;;;;;;;;;;21.20;81.90;;;;;;5115597;28;20354;-49
2023/04/19 01:17:18;;;;;;;;;;;21.20;82.10;;;;;;5115544;28;19907;-52
2023/04/19 01:19:43;;;;;;;;;;;21.10;82.30;;;;;;5115810;28;19966;-49
2023/04/19 01:22:09;;;;;;;;;;;21.10;82.50;;;;;;5115681;28;19907;-51
2023/04/19 01:24:34;;;;;;;;;;;21.00;82.60;;;;;;5115041;28;20041;-52
2023/04/19 01:27:01;;;;;;;;;;;20.90;82.60;;;;;;5119266;27;19908;-52
2023/04/19 01:29:26;;;;;;;;;;;20.80;82.50;;;;;;5114545;28;20006;-52
2023/04/19 01:31:52;;;;;;;;;;;20.80;82.70;;;;;;5115352;28;20045;-50
2023/04/19 01:34:18;;;;;;;;;;;20.80;82.80;;;;;;5115203;28;19911;-48
2023/04/19 01:36:44;;;;;;;;;;;20.80;82.90;;;;;;5115436;28;19978;-50
2023/04/19 01:39:09;;;;;;;;;;;20.80;83.00;;;;;;5115327;28;20368;-51
2023/04/19 01:41:35;;;;;;;;;;;20.90;82.80;;;;;;5095050;28;19947;-52
2023/04/19 01:44:00;;;;;;;;;;;21.10;82.50;;;;;;5106042;28;20370;-47
2023/04/19 01:46:26;;;;;;;;;;;21.20;82.10;;;;;;5115014;28;20385;-50
2023/04/19 01:48:51;;;;;;;;;;;21.40;81.80;;;;;;5115265;28;19912;-49
2023/04/19 01:51:17;;;;;;;;;;;21.60;81.40;;;;;;5113556;28;19922;-49
2023/04/19 01:53:42;;;;;;;;;;;21.70;80.90;;;;;;5115162;28;20313;-51
2023/04/19 01:56:08;;;;;;;;;;;21.80;80.70;;;;;;5114956;28;19950;-46
2023/04/19 01:58:33;;;;;;;;;;;21.80;80.60;;;;;;5114725;28;19954;-48
2023/04/19 02:00:59;;;;;;;;;;;21.80;80.60;;;;;;5114763;28;19908;-51
2023/04/19 02:03:24;;;;;;;;;;;21.70;80.80;;;;;;5114885;28;19908;-48
2023/04/19 02:05:49;;;;;;;;;;;21.60;81.00;;;;;;5114876;28;19908;-50
2023/04/19 02:08:15;;;;;;;;;;;21.60;81.10;;;;;;5120204;27;19938;-50
2023/04/19 02:10:40;;;;;;;;;;;21.40;77.90;;;;;;5127152;27;19923;-48
2023/04/19 02:13:06;;;;;;;;;;;21.10;75.80;;;;;;5122600;27;20053;-51
2023/04/19 02:15:31;;;;;;;;;;;21.00;78.90;;;;;;5115077;28;19915;-52
2023/04/19 02:17:59;;;;;;;;;;;21.00;80.50;;;;;;5114678;28;20323;-51
2023/04/19 02:20:24;;;;;;;;;;;20.90;80.90;;;;;;5114717;28;20281;-50
2023/04/19 02:22:50;;;;;;;;;;;20.90;81.30;;;;;;5114462;28;19908;-51
2023/04/19 02:25:15;;;;;;;;;;;20.80;81.60;;;;;;5116356;27;19957;-52
2023/04/19 02:27:40;;;;;;;;;;;20.80;81.60;;;;;;5114211;28;19907;-49
2023/04/19 02:30:06;;;;;;;;;;;20.80;82.00;;;;;;5114463;28;19939;-51
2023/04/19 02:32:32;;;;;;;;;;;20.80;82.20;;;;;;5114395;28;19912;-52
2023/04/19 02:34:57;;;;;;;;;;;20.80;82.20;;;;;;5114533;28;20326;-50
2023/04/19 02:37:23;;;;;;;;;;;20.80;82.20;;;;;;5114467;28;19918;-50
2023/04/19 02:39:48;;;;;;;;;;;20.90;82.20;;;;;;5114055;28;20397;-52
2023/04/19 02:42:14;;;;;;;;;;;21.00;81.90;;;;;;5114152;28;19972;-50
2023/04/19 02:44:39;;;;;;;;;;;21.30;81.60;;;;;;5114195;28;20351;-51
2023/04/19 02:47:05;;;;;;;;;;;21.40;81.10;;;;;;5116416;28;20002;-48
2023/04/19 02:49:35;;;;;;;;;;;21.40;80.70;;;;;;5113007;28;19908;-53
2023/04/19 02:52:01;;;;;;;;;;;21.50;80.80;;;;;;5112221;28;19991;-51
2023/04/19 02:54:26;;;;;;;;;;;21.40;81.00;;;;;;5113977;28;20266;-52
2023/04/19 02:56:52;;;;;;;;;;;21.40;81.30;;;;;;5114262;28;19907;-50
2023/04/19 02:59:17;;;;;;;;;;;21.30;81.50;;;;;;5113994;28;19930;-50
2023/04/19 03:01:43;;;;;;;;;;;21.20;81.60;;;;;;5113921;28;20006;-51
2023/04/19 03:04:08;;;;;;;;;;;21.20;81.70;;;;;;5114324;28;19908;-53
2023/04/19 03:06:35;;;;;;;;;;;21.10;81.70;;;;;;5114180;28;19918;-53
2023/04/19 03:09:00;;;;;;;;;;;21.00;81.90;;;;;;5113817;28;20312;-51
2023/04/19 03:11:26;;;;;;;;;;;20.90;82.00;;;;;;5114124;28;19919;-49
2023/04/19 03:13:51;;;;;;;;;;;20.90;82.10;;;;;;5113768;28;19919;-51
2023/04/19 03:16:17;;;;;;;;;;;20.90;82.40;;;;;;5114112;28;19908;-51
2023/04/19 03:18:42;;;;;;;;;;;20.90;82.40;;;;;;5113862;28;19908;-51
2023/04/19 03:21:08;;;;;;;;;;;20.90;82.50;;;;;;5114174;28;20038;-51
2023/04/19 03:23:34;;;;;;;;;;;20.90;82.60;;;;;;5114134;28;19977;-50
2023/04/19 03:25:59;;;;;;;;;;;21.00;82.50;;;;;;5113937;28;19908;-51
2023/04/19 03:28:24;;;;;;;;;;;21.20;82.20;;;;;;5113888;28;19908;-52
2023/04/19 03:30:50;;;;;;;;;;;21.30;81.90;;;;;;5113884;28;20377;-48
2023/04/19 03:33:15;;;;;;;;;;;21.30;81.60;;;;;;5114207;28;19912;-49
2023/04/19 03:35:42;;;;;;;;;;;21.40;81.60;;;;;;5113965;28;19943;-52
2023/04/19 03:38:07;;;;;;;;;;;21.30;81.60;;;;;;5113551;28;20346;-48
2023/04/19 03:40:33;;;;;;;;;;;21.20;81.80;;;;;;5113853;28;19919;-53
2023/04/19 03:42:58;;;;;;;;;;;21.20;81.80;;;;;;5113506;28;19958;-49
2023/04/19 03:45:24;;;;;;;;;;;21.20;81.90;;;;;;5113550;28;19907;-48
2023/04/19 03:47:49;;;;;;;;;;;21.10;82.10;;;;;;5113739;28;19951;-52
2023/04/19 03:50:15;;;;;;;;;;;21.00;82.10;;;;;;5113696;28;19908;-51
2023/04/19 03:52:40;;;;;;;;;;;21.00;82.20;;;;;;5116619;28;20109;-50
2023/04/19 03:55:06;;;;;;;;;;;20.90;82.20;;;;;;5117317;28;19912;-52
2023/04/19 03:57:31;;;;;;;;;;;20.90;82.50;;;;;;5117195;28;20330;-51
2023/04/19 03:59:57;;;;;;;;;;;20.80;82.50;;;;;;5117241;28;19960;-50
2023/04/19 04:02:22;;;;;;;;;;;20.80;82.70;;;;;;5117122;28;19958;-48
2023/04/19 04:04:54;;;;;;;;;;;20.70;82.70;;;;;;5117469;28;19915;-51
2023/04/19 04:07:20;;;;;;;;;;;20.70;82.70;;;;;;5117192;28;20370;-51
2023/04/19 04:09:47;;;;;;;;;;;20.70;82.80;;;;;;5116983;28;19908;-50
2023/04/19 04:12:12;;;;;;;;;;;20.80;82.80;;;;;;5116935;28;19972;-52
2023/04/19 04:14:38;;;;;;;;;;;20.90;82.80;;;;;;5115306;28;19916;-51
2023/04/19 04:17:03;;;;;;;;;;;20.90;82.60;;;;;;5116879;28;19985;-53
2023/04/19 04:19:29;;;;;;;;;;;21.10;82.30;;;;;;5117261;28;20271;-48
2023/04/19 04:21:54;;;;;;;;;;;21.30;81.90;;;;;;5116762;28;19908;-51
2023/04/19 04:24:21;;;;;;;;;;;21.50;81.50;;;;;;5116534;28;20274;-52
2023/04/19 04:26:48;;;;;;;;;;;21.60;81.20;;;;;;5116717;28;19998;-52
2023/04/19 04:29:14;;;;;;;;;;;21.70;80.90;;;;;;5116733;28;19912;-52
2023/04/19 04:31:39;;;;;;;;;;;21.60;80.70;;;;;;5116455;28;19965;-52
2023/04/19 04:34:05;;;;;;;;;;;21.60;80.60;;;;;;5116451;28;20355;-52
2023/04/19 04:36:30;;;;;;;;;;;21.50;80.80;;;;;;5116446;28;20245;-50
2023/04/19 04:39:00;;;;;;;;;;;21.50;80.80;;;;;;5116244;28;19915;-52
2023/04/19 04:41:26;;;;;;;;;;;21.40;81.00;;;;;;5116305;28;19972;-50
2023/04/19 04:43:52;;;;;;;;;;;21.30;81.20;;;;;;5115117;28;20010;-53
2023/04/19 04:46:19;;;;;;;;;;;21.20;81.20;;;;;;5115724;27;20393;-51
2023/04/19 04:48:45;;;;;;;;;;;21.10;81.50;;;;;;5116655;28;19955;-52
2023/04/19 04:51:10;;;;;;;;;;;21.10;81.80;;;;;;5116213;28;19927;-53
2023/04/19 04:53:36;;;;;;;;;;;21.00;81.80;;;;;;5116317;28;19912;-54
2023/04/19 04:56:01;;;;;;;;;;;20.90;82.00;;;;;;5115899;28;19914;-50
2023/04/19 04:58:27;;;;;;;;;;;20.90;82.30;;;;;;5115973;28;20403;-50
2023/04/19 05:00:52;;;;;;;;;;;20.80;82.40;;;;;;5115763;28;19951;-51
2023/04/19 05:03:18;;;;;;;;;;;20.80;82.60;;;;;;5115911;28;20003;-52
2023/04/19 05:05:44;;;;;;;;;;;20.80;82.90;;;;;;5115768;28;20358;-50
2023/04/19 05:08:09;;;;;;;;;;;20.80;83.00;;;;;;5115948;28;19908;-53
2023/04/19 05:10:35;;;;;;;;;;;20.90;83.00;;;;;;5115653;27;20307;-52
2023/04/19 05:13:00;;;;;;;;;;;20.90;82.70;;;;;;5115727;28;19930;-49
2023/04/19 05:15:26;;;;;;;;;;;21.00;82.70;;;;;;5115718;28;19912;-50
2023/04/19 05:17:51;;;;;;;;;;;21.00;82.60;;;;;;5115335;28;19933;-55
2023/04/19 05:20:17;;;;;;;;;;;21.10;82.50;;;;;;5115048;28;19908;-52
2023/04/19 05:22:42;;;;;;;;;;;21.10;82.40;;;;;;5117003;27;20375;-53
2023/04/19 05:25:08;;;;;;;;;;;21.10;82.20;;;;;;5124023;27;19916;-55
2023/04/19 05:27:34;;;;;;;;;;;21.10;82.20;;;;;;5115308;28;19919;-52
2023/04/19 05:29:59;;;;;;;;;;;21.10;82.30;;;;;;5115114;28;20004;-52
2023/04/19 05:32:26;;;;;;;;;;;21.10;82.30;;;;;;5115185;28;20015;-49
2023/04/19 05:34:51;;;;;;;;;;;21.00;82.30;;;;;;5118021;27;20370;-50
2023/04/19 05:37:17;;;;;;;;;;;21.10;82.30;;;;;;5127255;27;19919;-52
2023/04/19 05:39:42;;;;;;;;;;;21.00;82.40;;;;;;5131365;27;19912;-49
2023/04/19 05:42:08;;;;;;;;;;;21.00;82.90;;;;;;5118656;27;19912;-49
2023/04/19 05:44:33;;;;;;;;;;;21.00;79.40;;;;;;5114098;27;19920;-50
2023/04/19 05:46:59;;;;;;;;;;;20.80;78.20;;;;;;5125208;27;19920;-52
2023/04/19 05:49:24;;;;;;;;;;;20.80;80.60;;;;;;5126485;27;19919;-49
2023/04/19 05:51:50;;;;;;;;;;;20.80;81.90;;;;;;5113574;27;19916;-48
2023/04/19 05:54:16;;;;;;;;;;;20.80;82.50;;;;;;5118324;27;19915;-48
2023/04/19 05:56:41;;;;;;;;;;;20.80;82.60;;;;;;5124842;27;19911;-46
2023/04/19 05:59:07;;;;;;;;;;;20.70;82.50;;;;;;5113919;27;20282;-47
2023/04/19 06:01:32;;;;;;;;;;;20.80;82.80;;;;;;5126596;27;20117;-57
2023/04/19 06:03:58;;;;;;;;;;;20.80;82.60;;;;;;5124735;27;19912;-58
2023/04/19 06:06:23;;;;;;;;;;;20.80;82.60;;;;;;5114700;28;19912;-56
2023/04/19 06:08:49;;;;;;;;;;;20.90;82.60;;;;;;5125567;27;19912;-57
2023/04/19 06:11:15;;;;;;;;;;;20.90;82.50;;;;;;5118798;27;19970;-56
2023/04/19 06:13:40;;;;;;;;;;;20.90;82.40;;;;;;5113340;27;20015;-57
2023/04/19 06:16:06;;;;;;;;;;;20.90;82.40;;;;;;5127062;27;19911;-56
2023/04/19 06:18:32;;;;;;;;;;;21.00;82.40;;;;;;5124422;27;20338;-56
2023/04/19 06:20:57;;;;;;;;;;;21.00;82.40;;;;;;5114651;28;19990;-57
2023/04/19 06:23:24;;;;;;;;;;;21.00;82.40;;;;;;5112489;27;19911;-54
2023/04/19 06:25:50;;;;;;;;;;;21.00;82.40;;;;;;5128160;27;20277;-56
2023/04/19 06:28:15;;;;;;;;;;;21.00;82.40;;;;;;5118771;27;19918;-55
2023/04/19 06:30:41;;;;;;;;;;;21.00;82.90;;;;;;5114351;28;19908;-56
2023/04/19 06:33:06;;;;;;;;;;;21.00;82.40;;;;;;5115417;27;19927;-55
2023/04/19 06:35:32;;;;;;;;;;;21.00;82.40;;;;;;5124781;27;20377;-57
2023/04/19 06:38:00;;;;;;;;;;;21.10;82.50;;;;;;5114766;28;19943;-59
2023/04/19 06:40:27;;;;;;;;;;;21.10;82.30;;;;;;5112905;27;19934;-58
2023/04/19 06:42:53;;;;;;;;;;;21.10;82.40;;;;;;5132271;27;19944;-55
2023/04/19 06:45:18;;;;;;;;;;;21.10;82.40;;;;;;5131536;27;20334;-55
2023/04/19 06:47:44;;;;;;;;;;;21.00;82.20;;;;;;5123303;27;19923;-52
2023/04/19 06:50:10;;;;;;;;;;;21.00;82.30;;;;;;5113725;28;19938;-56
2023/04/19 06:52:35;;;;;;;;;;;21.10;82.30;;;;;;5119296;28;19922;-56
2023/04/19 06:55:00;;;;;;;;;;;21.10;82.20;;;;;;5130963;27;19920;-57
2023/04/19 06:57:26;;;;;;;;;;;21.10;82.20;;;;;;5114263;28;19932;-55
2023/04/19 06:59:53;;;;;;;;;;;21.10;82.20;;;;;;5112595;28;19960;-59
2023/04/19 07:02:18;;;;;;;;;;;21.10;82.20;;;;;;5116185;27;20329;-58
2023/04/19 07:04:44;;;;;;;;;;;21.10;82.20;;;;;;5132498;28;19915;-55
2023/04/19 07:07:10;;;;;;;;;;;21.10;82.30;;;;;;5127835;27;20273;-57
2023/04/19 07:09:35;;;;;;;;;;;21.20;82.30;;;;;;5115219;28;19918;-59
2023/04/19 07:12:01;;;;;;;;;;;21.20;82.20;;;;;;5113320;28;19970;-55
2023/04/19 07:14:26;;;;;;;;;;;21.20;82.20;;;;;;5125282;27;19920;-54
2023/04/19 07:16:52;;;;;;;;;;;21.20;82.20;;;;;;5118665;28;20310;-57
2023/04/19 07:19:19;;;;;;;;;;;21.30;82.20;;;;;;5122583;27;20296;-55
2023/04/19 07:21:44;;;;;;;;;;;21.30;82.10;;;;;;5119607;28;19961;-57
2023/04/19 07:24:10;;;;;;;;;;;21.30;81.80;;;;;;5118568;28;19915;-57
2023/04/19 07:26:35;;;;;;;;;;;21.30;82.00;;;;;;5114842;28;20003;-54
2023/04/19 07:29:01;;;;;;;;;;;21.30;82.10;;;;;;5117809;28;19907;-57
2023/04/19 07:31:27;;;;;;;;;;;21.30;82.00;;;;;;5120403;27;19915;-56
2023/04/19 07:33:52;;;;;;;;;;;21.30;81.90;;;;;;5116005;27;20017;-59
2023/04/19 07:36:18;;;;;;;;;;;21.40;81.90;;;;;;5116068;27;19957;-56
2023/04/19 07:38:43;;;;;;;;;;;21.40;81.80;;;;;;5121873;27;19968;-57
2023/04/19 07:41:09;;;;;;;;;;;21.40;81.80;;;;;;5127185;27;19911;-56
2023/04/19 07:43:35;;;;;;;;;;;21.40;81.70;;;;;;5133705;27;19919;-57
2023/04/19 07:46:01;;;;;;;;;;;21.50;81.80;;;;;;5120555;27;19999;-57
2023/04/19 07:48:26;;;;;;;;;;;21.40;81.80;;;;;;5116755;28;19912;-58
2023/04/19 07:50:52;;;;;;;;;;;21.40;81.90;;;;;;5115835;27;19918;-57
2023/04/19 07:53:17;;;;;;;;;;;21.40;82.00;;;;;;5120341;27;20444;-58
2023/04/19 07:55:43;;;;;;;;;;;21.30;82.10;;;;;;5138040;27;19907;-57
2023/04/19 07:58:08;;;;;;;;;;;21.20;82.20;;;;;;5136409;27;19915;-58
2023/04/19 08:00:35;;;;;;;;;;;21.20;82.40;;;;;;5131582;27;20381;-59
2023/04/19 08:03:02;;;;;;;;;;;21.20;82.50;;;;;;5115725;27;19919;-58
2023/04/19 08:05:28;;;;;;;;;;;21.10;82.60;;;;;;5116449;27;20362;-57
2023/04/19 08:07:54;;;;;;;;;;;21.10;82.80;;;;;;5121312;27;20061;-61
2023/04/19 08:10:20;;;;;;;;;;;21.00;83.00;;;;;;5116734;27;20398;-58
2023/04/19 08:12:45;;;;;;;;;;;20.90;83.10;;;;;;5116931;28;20090;-58
2023/04/19 08:15:11;;;;;;;;;;;20.90;83.20;;;;;;5114251;27;19915;-57
2023/04/19 08:17:36;;;;;;;;;;;20.90;82.90;;;;;;5121928;27;19933;-57
2023/04/19 08:20:02;;;;;;;;;;;20.90;83.00;;;;;;5115641;27;19911;-58
2023/04/19 08:22:28;;;;;;;;;;;21.00;83.00;;;;;;5118283;27;19942;-57
2023/04/19 08:24:53;;;;;;;;;;;21.00;83.10;;;;;;5120184;27;20286;-58
2023/04/19 08:27:19;;;;;;;;;;;21.00;82.90;;;;;;5116425;27;19914;-55
2023/04/19 08:29:44;;;;;;;;;;;21.00;82.90;;;;;;5115393;27;19908;-58
2023/04/19 08:32:11;;;;;;;;;;;21.00;82.90;;;;;;5116078;27;20354;-57
2023/04/19 08:34:37;;;;;;;;;;;21.10;82.90;;;;;;5116716;27;20361;-56
2023/04/19 08:37:03;;;;;;;;;;;21.10;82.80;;;;;;5095796;28;19949;-58
2023/04/19 08:39:29;;;;;;;;;;;21.10;82.80;;;;;;5109198;27;19908;-56
2023/04/19 08:41:56;;;;;;;;;;;21.10;82.80;;;;;;5116790;27;19907;-58
2023/04/19 08:44:22;;;;;;;;;;;21.10;82.90;;;;;;5115541;27;19969;-57
2023/04/19 08:46:49;;;;;;;;;;;21.10;82.80;;;;;;5116233;27;20349;-57
2023/04/19 08:49:15;;;;;;;;;;;21.20;82.90;;;;;;5115652;28;20272;-59
2023/04/19 08:51:41;;;;;;;;;;;21.20;82.70;;;;;;5115200;27;19912;-57
2023/04/19 08:54:07;;;;;;;;;;;21.20;82.80;;;;;;5116880;27;20002;-57
2023/04/19 08:56:33;;;;;;;;;;;21.20;82.70;;;;;;5114418;28;19967;-58
2023/04/19 08:58:58;;;;;;;;;;;21.20;82.70;;;;;;5115526;27;19930;-58
2023/04/19 09:01:24;;;;;;;;;;;21.20;82.70;;;;;;5115983;27;20274;-59
2023/04/19 09:03:49;;;;;;;;;;;21.20;82.70;;;;;;5115621;27;20437;-54
2023/04/19 09:06:15;;;;;;;;;;;21.20;82.80;;;;;;5115496;28;19911;-54
2023/04/19 09:08:41;;;;;;;;;;;21.20;82.80;;;;;;5135643;27;19904;-58
2023/04/19 09:11:07;;;;;;;;;;;21.10;82.80;;;;;;5136584;27;19903;-56
2023/04/19 09:13:35;;;;;;;;;;;21.20;83.00;;;;;;5115149;27;20364;-55
2023/04/19 09:16:01;;;;;;;;;;;21.20;83.00;;;;;;5114087;27;19916;-53
2023/04/19 09:18:26;;;;;;;;;;;21.20;82.90;;;;;;5115979;27;19911;-56
2023/04/19 09:20:56;;;;;;;;;;;21.20;83.00;;;;;;5115483;27;20384;-57
2023/04/19 09:23:22;;;;;;;;;;;21.20;82.90;;;;;;5115913;28;19907;-55
2023/04/19 09:25:52;;;;;;;;;;;21.20;82.90;;;;;;5118749;27;20012;-55
2023/04/19 09:28:18;;;;;;;;;;;21.30;82.90;;;;;;5115822;28;19910;-55
2023/04/19 09:30:43;;;;;;;;;;;21.30;82.80;;;;;;5115044;27;20315;-57
2023/04/19 09:33:09;;;;;;;;;;;21.40;82.60;;;;;;5115264;28;19908;-58
2023/04/19 09:35:46;;;;;;;;;;;21.40;82.50;;;;;;5113939;27;19915;-56
2023/04/19 09:38:13;;;;;;;;;;;21.50;82.50;;;;;;5114177;27;19911;-55
2023/04/19 09:40:39;;;;;;;;;;;21.50;82.40;;;;;;5115480;28;19910;-57
2023/04/19 09:43:04;;;;;;;;;;;21.40;82.30;;;;;;5115232;27;19920;-55
2023/04/19 09:45:43;;;;;;;;;;;21.50;82.40;;;;;;5115282;27;19908;-56
2023/04/19 09:48:09;;;;;;;;;;;21.40;82.40;;;;;;5128584;27;19915;-54
2023/04/19 09:50:54;;;;;;;;;;;21.40;82.50;;;;;;5134911;27;19907;-57
2023/04/19 09:53:20;;;;;;;;;;;21.30;82.60;;;;;;5119121;27;19922;-55
2023/04/19 09:55:48;;;;;;;;;;;21.30;83.30;;;;;;5133026;27;19914;-56
2023/04/19 09:58:17;;;;;;;;;;;21.30;82.80;;;;;;5120198;27;19954;-57
2023/04/19 10:00:43;;;;;;;;;;;21.20;82.90;;;;;;5113487;27;20270;-58
2023/04/19 10:03:09;;;;;;;;;;;21.20;83.00;;;;;;5130103;27;19914;-58
2023/04/19 10:05:39;;;;;;;;;;;21.20;83.10;;;;;;5120658;27;19907;-57
2023/04/19 10:08:06;;;;;;;;;;;21.20;81.80;;;;;;5128191;27;20434;-57
2023/04/19 10:10:32;;;;;;;;;;;21.10;82.80;;;;;;5117127;27;20007;-54
2023/04/19 10:12:58;;;;;;;;;;;21.20;83.00;;;;;;5132085;27;19976;-58
2023/04/19 10:15:24;;;;;;;;;;;21.20;82.90;;;;;;5117385;27;19916;-52
2023/04/19 10:17:50;;;;;;;;;;;21.20;82.90;;;;;;5118245;27;20280;-50
2023/04/19 10:20:35;;;;;;;;;;;21.30;82.80;;;;;;5124876;27;19908;-53
2023/04/19 10:23:01;;;;;;;;;;;21.40;82.60;;;;;;5105916;28;19919;-53
2023/04/19 10:25:28;;;;;;;;;;;21.40;82.40;;;;;;5114274;27;20282;-52
2023/04/19 10:27:54;;;;;;;;;;;21.50;82.30;;;;;;5114039;28;19916;-49
2023/04/19 10:30:23;;;;;;;;;;;21.40;82.30;;;;;;5113997;27;20432;-54
2023/04/19 10:32:54;;;;;;;;;;;21.50;82.20;;;;;;5112750;28;20419;-53
2023/04/19 10:35:29;;;;;;;;;;;21.40;82.20;;;;;;5103802;28;19977;-52
2023/04/19 10:38:09;;;;;;;;;;;21.40;82.20;;;;;;5117363;27;20043;-52
2023/04/19 10:40:55;;;;;;;;;;;21.40;82.20;;;;;;5114250;28;19919;-53
2023/04/19 10:43:25;;;;;;;;;;;21.30;82.30;;;;;;5114093;28;19920;-54
2023/04/19 10:45:51;;;;;;;;;;;21.30;82.30;;;;;;5114077;28;19907;-49
2023/04/19 10:48:32;;;;;;;;;;;21.20;82.30;;;;;;5114208;28;19908;-51
2023/04/19 10:51:03;;;;;;;;;;;21.20;82.40;;;;;;5117026;28;19911;-53
2023/04/19 10:53:47;;;;;;;;;;;21.20;82.40;;;;;;5120825;28;20009;-56
2023/04/19 10:56:13;;;;;;;;;;;21.20;82.40;;;;;;5117704;27;20267;-58
2023/04/19 10:58:57;;;;;;;;;;;21.20;80.10;;;;;;5114348;28;19997;-55
2023/04/19 11:01:43;;;;;;;;;;;21.20;81.70;;;;;;5130183;27;20366;-54
2023/04/19 11:04:13;;;;;;;;;;;21.30;82.20;;;;;;5131644;27;19960;-57
2023/04/19 11:06:51;;;;;;;;;;;21.30;82.10;;;;;;5120313;27;20396;-58
2023/04/19 11:09:23;;;;;;;;;;;21.40;82.00;;;;;;5138737;27;19908;-53
2023/04/19 11:11:49;;;;;;;;;;;21.50;81.80;;;;;;5118199;27;19937;-55
2023/04/19 11:14:14;;;;;;;;;;;21.60;81.60;;;;;;5118279;28;20362;-56
2023/04/19 11:16:40;;;;;;;;;;;21.60;81.50;;;;;;5118129;28;19908;-56
2023/04/19 11:19:05;;;;;;;;;;;21.60;81.50;;;;;;5117920;28;20255;-59
2023/04/19 11:21:32;;;;;;;;;;;21.60;81.50;;;;;;5127801;27;19934;-57
2023/04/19 11:24:10;;;;;;;;;;;21.60;81.60;;;;;;5138677;27;19987;-57
2023/04/19 11:26:35;;;;;;;;;;;21.50;81.70;;;;;;5138450;27;19908;-56
2023/04/19 11:29:01;;;;;;;;;;;21.50;82.00;;;;;;5123731;27;20282;-57
2023/04/19 11:31:26;;;;;;;;;;;21.40;82.20;;;;;;5117948;28;19918;-58
2023/04/19 11:33:52;;;;;;;;;;;21.30;82.30;;;;;;5122271;27;19915;-57
2023/04/19 11:36:18;;;;;;;;;;;21.20;82.50;;;;;;5118815;27;19915;-59
2023/04/19 11:38:46;;;;;;;;;;;21.20;82.80;;;;;;5117671;28;19908;-57
2023/04/19 11:41:12;;;;;;;;;;;21.20;82.90;;;;;;5117965;28;20002;-56
2023/04/19 11:43:38;;;;;;;;;;;21.20;82.90;;;;;;5134906;27;20348;-57
2023/04/19 11:46:10;;;;;;;;;;;21.20;82.90;;;;;;5136824;27;19957;-61
2023/04/19 11:48:36;;;;;;;;;;;21.20;82.80;;;;;;5137941;27;19914;-57
2023/04/19 11:51:02;;;;;;;;;;;21.30;82.80;;;;;;5131206;27;20294;-58
2023/04/19 11:53:29;;;;;;;;;;;21.40;82.60;;;;;;5117563;28;19937;-58
2023/04/19 11:55:56;;;;;;;;;;;21.40;82.40;;;;;;5117753;28;19911;-55
2023/04/19 11:58:28;;;;;;;;;;;21.50;82.30;;;;;;5123552;27;19918;-56
2023/04/19 12:00:54;;;;;;;;;;;21.50;82.30;;;;;;5116990;28;19908;-59
2023/04/19 12:03:21;;;;;;;;;;;21.50;82.30;;;;;;5120280;27;20212;-58
2023/04/19 12:05:57;;;;;;;;;;;21.40;82.40;;;;;;5137720;27;19911;-60
2023/04/19 12:08:30;;;;;;;;;;;21.40;82.50;;;;;;5123506;27;19955;-58
2023/04/19 12:10:57;;;;;;;;;;;21.40;82.70;;;;;;5125428;27;19966;-57
2023/04/19 12:13:23;;;;;;;;;;;21.30;82.90;;;;;;5120057;27;19920;-58
2023/04/19 12:15:49;;;;;;;;;;;21.30;83.00;;;;;;5124180;27;19934;-56
2023/04/19 12:18:14;;;;;;;;;;;21.20;83.10;;;;;;5120379;27;19916;-58
2023/04/19 12:20:44;;;;;;;;;;;21.20;83.30;;;;;;5117485;27;19919;-57
2023/04/19 12:23:12;;;;;;;;;;;21.10;83.40;;;;;;5129425;27;19957;-57
2023/04/19 12:25:38;;;;;;;;;;;21.00;83.40;;;;;;5124276;27;19950;-56
2023/04/19 12:28:04;;;;;;;;;;;21.00;83.20;;;;;;5126201;27;20033;-55
2023/04/19 12:30:29;;;;;;;;;;;20.90;83.60;;;;;;5115151;28;20010;-55
2023/04/19 12:32:55;;;;;;;;;;;20.90;83.80;;;;;;5116477;28;20274;-57
2023/04/19 12:35:21;;;;;;;;;;;20.90;83.80;;;;;;5117133;28;19938;-57
2023/04/19 12:37:47;;;;;;;;;;;20.90;83.80;;;;;;5116855;28;19915;-56
2023/04/19 12:40:13;;;;;;;;;;;21.00;83.80;;;;;;5116385;28;19912;-56
2023/04/19 12:42:39;;;;;;;;;;;21.10;83.60;;;;;;5116315;28;20390;-49
2023/04/19 12:45:04;;;;;;;;;;;21.30;83.20;;;;;;5116512;28;19911;-49
2023/04/19 12:47:30;;;;;;;;;;;21.50;82.60;;;;;;5116865;28;19943;-50
2023/04/19 12:49:56;;;;;;;;;;;21.80;82.10;;;;;;5120583;27;20409;-53
2023/04/19 12:52:22;;;;;;;;;;;21.90;81.70;;;;;;5116255;28;19912;-53
2023/04/19 12:54:47;;;;;;;;;;;21.90;81.50;;;;;;5116102;28;19997;-50
2023/04/19 12:57:13;;;;;;;;;;;21.90;81.50;;;;;;5116111;28;19907;-52
2023/04/19 12:59:38;;;;;;;;;;;21.90;81.60;;;;;;5115751;28;19911;-54
2023/04/19 13:02:04;;;;;;;;;;;21.80;81.70;;;;;;5116198;28;19912;-52
2023/04/19 13:04:30;;;;;;;;;;;21.80;82.00;;;;;;5115962;27;19908;-53
2023/04/19 13:06:55;;;;;;;;;;;21.70;82.20;;;;;;5120259;27;19915;-54
2023/04/19 13:09:21;;;;;;;;;;;21.60;82.30;;;;;;5136582;27;19968;-53
2023/04/19 13:11:46;;;;;;;;;;;21.50;82.50;;;;;;5135035;27;19911;-51
2023/04/19 13:14:12;;;;;;;;;;;21.50;82.80;;;;;;5136078;27;20285;-52
2023/04/19 13:16:37;;;;;;;;;;;21.40;82.90;;;;;;5130433;27;20029;-54
2023/04/19 13:19:02;;;;;;;;;;;21.30;83.10;;;;;;5115500;28;19908;-53
2023/04/19 13:21:28;;;;;;;;;;;21.30;83.30;;;;;;5115671;28;19998;-51
2023/04/19 13:23:53;;;;;;;;;;;21.20;83.40;;;;;;5114428;28;19927;-51
2023/04/19 13:26:19;;;;;;;;;;;21.20;83.70;;;;;;5115202;28;19907;-53
2023/04/19 13:28:44;;;;;;;;;;;21.10;83.70;;;;;;5115637;28;19914;-53
2023/04/19 13:31:10;;;;;;;;;;;21.10;83.70;;;;;;5115138;28;19914;-55
2023/04/19 13:33:35;;;;;;;;;;;21.10;83.70;;;;;;5115284;28;20407;-53
2023/04/19 13:36:01;;;;;;;;;;;21.20;83.70;;;;;;5115285;28;19951;-54
2023/04/19 13:38:27;;;;;;;;;;;21.30;83.50;;;;;;5114317;27;19964;-54
2023/04/19 13:40:52;;;;;;;;;;;21.40;83.10;;;;;;5115452;28;20474;-54
2023/04/19 13:43:18;;;;;;;;;;;21.60;82.80;;;;;;5113296;27;19972;-51
2023/04/19 13:45:43;;;;;;;;;;;21.80;82.50;;;;;;5114609;27;19916;-51
2023/04/19 13:48:08;;;;;;;;;;;21.90;82.20;;;;;;5113368;28;20007;-55
2023/04/19 13:50:34;;;;;;;;;;;21.90;82.00;;;;;;5135749;27;19911;-55
2023/04/19 13:53:00;;;;;;;;;;;21.90;82.00;;;;;;5133774;27;20354;-51
2023/04/19 13:55:25;;;;;;;;;;;21.80;82.00;;;;;;5135327;27;20022;-51
2023/04/19 13:57:51;;;;;;;;;;;21.80;82.30;;;;;;5135309;27;19908;-52
2023/04/19 14:00:16;;;;;;;;;;;21.70;82.40;;;;;;5124646;27;19918;-55
2023/04/19 14:02:43;;;;;;;;;;;21.70;82.60;;;;;;5118169;27;19912;-53
2023/04/19 14:05:09;;;;;;;;;;;21.60;82.70;;;;;;5114370;28;19980;-53
2023/04/19 14:07:34;;;;;;;;;;;21.50;82.80;;;;;;5115444;27;20360;-53
2023/04/19 14:10:01;;;;;;;;;;;21.40;82.90;;;;;;5115029;28;20231;-50
2023/04/19 14:12:26;;;;;;;;;;;21.40;83.00;;;;;;5114695;28;20069;-55